createdAt,value
2022-09-20T00:01:56.282Z,22.29
2022-09-20T00:04:28.967Z,22.30
2022-09-20T00:07:02.135Z,22.29
2022-09-20T00:09:35.502Z,22.30
2022-09-20T00:12:09.105Z,22.30
2022-09-20T00:14:41.928Z,22.30
2022-09-20T00:17:16.282Z,22.30
2022-09-20T00:19:49.018Z,22.30
2022-09-20T00:22:22.120Z,22.32
2022-09-20T00:24:54.984Z,22.31
2022-09-20T00:27:27.950Z,22.32
2022-09-20T00:30:00.644Z,22.31
2022-09-20T00:32:35.017Z,22.31
2022-09-20T00:35:10.957Z,22.31
2022-09-20T00:37:44.796Z,22.31
2022-09-20T00:40:20.628Z,22.31
2022-09-20T00:42:54.034Z,22.31
2022-09-20T00:45:27.931Z,22.31
2022-09-20T00:48:04.732Z,22.31
2022-09-20T00:50:41.598Z,22.32
2022-09-20T00:53:17.001Z,22.32
2022-09-20T00:55:52.824Z,22.31
2022-09-20T00:58:28.099Z,22.33
2022-09-20T01:01:00.968Z,22.31
2022-09-20T01:03:37.701Z,22.32
2022-09-20T01:06:12.024Z,22.32
2022-09-20T01:08:49.125Z,22.33
2022-09-20T01:11:22.176Z,22.33
2022-09-20T01:13:55.126Z,22.33
2022-09-20T01:16:28.669Z,22.32
2022-09-20T01:19:08.574Z,22.33
2022-09-20T01:21:41.597Z,22.32
2022-09-20T01:24:20.243Z,22.32
2022-09-20T01:27:08.062Z,22.32
2022-09-20T01:29:58.713Z,22.32
2022-09-20T01:32:36.779Z,22.31
2022-09-20T01:35:11.548Z,22.32
2022-09-20T01:37:51.242Z,22.32
2022-09-20T01:40:28.038Z,22.31
2022-09-20T01:43:05.097Z,22.32
2022-09-20T01:45:40.705Z,22.32
2022-09-20T01:48:18.199Z,22.31
2022-09-20T01:50:59.195Z,22.32
2022-09-20T01:53:49.958Z,22.31
2022-09-20T01:56:39.368Z,22.31
2022-09-20T01:59:24.982Z,22.33
2022-09-20T02:02:10.187Z,22.32
2022-09-20T02:04:58.064Z,22.31
2022-09-20T02:07:44.452Z,22.32
2022-09-20T02:10:32.525Z,22.31
2022-09-20T02:13:09.988Z,22.32
2022-09-20T02:15:53.944Z,22.33
2022-09-20T02:18:35.057Z,22.32
2022-09-20T02:21:12.266Z,22.31
2022-09-20T02:23:50.813Z,22.31
2022-09-20T02:26:33.111Z,22.31
2022-09-20T02:29:12.808Z,22.32
2022-09-20T02:31:57.463Z,22.31
2022-09-20T02:34:47.270Z,22.28
2022-09-20T02:37:27.555Z,22.30
2022-09-20T02:40:10.314Z,22.30
2022-09-20T02:42:46.073Z,22.31
2022-09-20T02:45:23.943Z,22.32
2022-09-20T02:47:59.848Z,22.31
2022-09-20T02:50:38.424Z,22.32
2022-09-20T02:53:24.272Z,22.31
2022-09-20T02:56:04.694Z,22.32
2022-09-20T02:58:41.965Z,22.31
2022-09-20T03:01:22.982Z,22.33
2022-09-20T03:04:01.673Z,22.32
2022-09-20T03:06:40.963Z,22.31
2022-09-20T03:09:19.319Z,22.32
2022-09-20T03:12:01.754Z,22.31
2022-09-20T03:14:37.930Z,22.31
2022-09-20T03:17:17.328Z,22.31
2022-09-20T03:20:01.674Z,22.31
2022-09-20T03:22:40.843Z,22.32
2022-09-20T03:25:27.456Z,22.31
2022-09-20T03:28:06.587Z,22.32
2022-09-20T03:30:46.514Z,22.31
2022-09-20T03:33:24.983Z,22.31
2022-09-20T03:36:08.783Z,22.31
2022-09-20T03:38:58.888Z,22.31
2022-09-20T03:41:36.325Z,22.32
2022-09-20T03:44:23.795Z,22.31
2022-09-20T03:47:01.133Z,22.32
2022-09-20T03:49:52.725Z,22.31
2022-09-20T03:52:35.947Z,22.29
2022-09-20T03:55:33.666Z,22.31
2022-09-20T03:58:12.287Z,22.32
2022-09-20T04:00:56.074Z,22.32
2022-09-20T04:03:39.705Z,22.31
2022-09-20T04:06:21.867Z,22.32
2022-09-20T04:09:16.065Z,22.31
2022-09-20T04:11:54.378Z,22.31
2022-09-20T04:14:31.298Z,22.31
2022-09-20T04:17:13.393Z,22.33
2022-09-20T04:19:50.879Z,22.33
2022-09-20T04:22:26.528Z,22.33
2022-09-20T04:25:03.384Z,22.34
2022-09-20T04:27:40.014Z,22.33
2022-09-20T04:30:18.376Z,22.33
2022-09-20T04:32:59.350Z,22.33
2022-09-20T04:35:57.357Z,22.33
2022-09-20T04:38:30.621Z,22.33
2022-09-20T04:41:16.387Z,22.34
2022-09-20T04:44:04.899Z,22.33
2022-09-20T04:47:05.924Z,22.34
2022-09-20T04:49:54.639Z,22.34
2022-09-20T04:52:46.282Z,22.33
2022-09-20T04:55:41.516Z,22.33
2022-09-20T04:58:29.077Z,22.34
2022-09-20T05:01:16.543Z,22.34
2022-09-20T05:04:06.126Z,22.33
2022-09-20T05:06:48.180Z,22.33
2022-09-20T05:09:29.290Z,22.33
2022-09-20T05:12:13.502Z,22.34
2022-09-20T05:14:57.713Z,22.33
2022-09-20T05:17:37.171Z,22.33
2022-09-20T05:20:27.975Z,22.37
2022-09-20T05:23:11.220Z,22.41
2022-09-20T05:25:52.151Z,22.40
2022-09-20T05:28:29.364Z,22.37
2022-09-20T05:31:06.589Z,22.41
2022-09-20T05:33:47.008Z,22.46
2022-09-20T05:36:24.708Z,22.47
2022-09-20T05:39:03.493Z,22.46
2022-09-20T05:41:42.156Z,22.47
2022-09-20T05:44:20.927Z,22.52
2022-09-20T05:46:59.466Z,22.53
2022-09-20T05:49:40.658Z,22.52
2022-09-20T05:52:25.208Z,22.56
2022-09-20T05:55:07.783Z,22.55
2022-09-20T05:57:47.738Z,22.58
2022-09-20T06:00:22.126Z,22.61
2022-09-20T06:02:59.542Z,22.65
2022-09-20T06:05:38.629Z,22.67
2022-09-20T06:08:19.538Z,22.68
2022-09-20T06:11:10.386Z,22.60
2022-09-20T06:13:50.890Z,22.72
2022-09-20T06:16:29.336Z,22.75
2022-09-20T06:19:06.123Z,22.77
2022-09-20T06:21:45.718Z,22.80
2022-09-20T06:24:27.698Z,22.76
2022-09-20T06:27:04.942Z,22.65
2022-09-20T06:29:41.579Z,22.58
2022-09-20T06:32:17.138Z,22.48
2022-09-20T06:34:51.003Z,22.45
2022-09-20T06:37:52.748Z,22.40
2022-09-20T06:40:49.967Z,22.34
2022-09-20T06:43:24.274Z,22.34
2022-09-20T06:45:57.093Z,22.30
2022-09-20T06:48:31.515Z,22.25
2022-09-20T06:51:04.630Z,22.25
2022-09-20T06:53:39.630Z,22.24
2022-09-20T06:56:16.719Z,22.20
2022-09-20T06:58:52.103Z,22.17
2022-09-20T07:01:30.117Z,22.14
2022-09-20T07:04:03.799Z,22.10
2022-09-20T07:06:36.653Z,22.10
2022-09-20T07:09:11.861Z,22.08
2022-09-20T07:11:46.301Z,22.06
2022-09-20T07:14:20.765Z,22.02
2022-09-20T07:16:54.140Z,21.99
2022-09-20T07:19:27.439Z,22.00
2022-09-20T07:22:00.590Z,21.93
2022-09-20T07:24:33.463Z,21.91
2022-09-20T07:27:07.127Z,21.91
2022-09-20T07:29:41.341Z,21.91
2022-09-20T07:32:15.328Z,21.92
2022-09-20T07:34:48.305Z,21.88
2022-09-20T07:37:21.398Z,21.86
2022-09-20T07:39:54.515Z,21.85
2022-09-20T07:42:29.800Z,21.80
2022-09-20T07:45:04.574Z,21.80
2022-09-20T07:47:41.228Z,21.80
2022-09-20T07:50:14.497Z,21.77
2022-09-20T07:52:47.298Z,21.76
2022-09-20T07:55:20.372Z,21.74
2022-09-20T07:57:54.453Z,21.74
2022-09-20T08:00:29.145Z,21.71
2022-09-20T08:03:01.939Z,21.70
2022-09-20T08:05:35.742Z,21.71
2022-09-20T08:08:09.419Z,21.68
2022-09-20T08:10:42.949Z,21.66
2022-09-20T08:16:13.356Z,21.69
2022-09-20T08:18:47.376Z,21.64
2022-09-20T08:21:20.541Z,21.63
2022-09-20T08:23:53.945Z,21.64
2022-09-20T08:26:27.964Z,21.63
2022-09-20T08:29:01.173Z,21.64
2022-09-20T08:31:37.618Z,21.60
2022-09-20T08:34:11.816Z,21.58
2022-09-20T08:36:46.832Z,21.57
2022-09-20T08:42:16.069Z,21.55
2022-09-20T08:45:00.055Z,21.55
2022-09-20T08:47:36.357Z,21.57
2022-09-20T08:50:17.301Z,21.59
2022-09-20T08:52:53.938Z,21.64
2022-09-20T08:55:39.949Z,21.62
2022-09-20T08:58:13.529Z,21.65
2022-09-20T09:00:47.727Z,21.65
2022-09-20T09:03:22.109Z,21.69
2022-09-20T09:05:55.452Z,21.74
2022-09-20T09:08:30.934Z,21.79
2022-09-20T09:11:09.703Z,21.81
2022-09-20T09:13:50.247Z,21.78
2022-09-20T09:16:30.176Z,21.78
2022-09-20T09:19:33.358Z,21.79
2022-09-20T09:22:07.045Z,21.76
2022-09-20T09:24:40.195Z,21.80
2022-09-20T09:27:16.389Z,21.83
2022-09-20T09:29:50.412Z,21.86
2022-09-20T09:32:24.545Z,21.83
2022-09-20T09:35:20.087Z,21.90
2022-09-20T09:37:57.042Z,21.91
2022-09-20T09:40:31.637Z,21.97
2022-09-20T09:43:05.187Z,21.97
2022-09-20T09:45:40.042Z,22.00
2022-09-20T09:48:18.739Z,22.02
2022-09-20T09:51:07.411Z,22.05
2022-09-20T09:53:40.434Z,22.08
2022-09-20T09:56:31.115Z,22.10
2022-09-20T09:59:14.586Z,22.11
2022-09-20T10:01:51.221Z,22.10
2022-09-20T10:04:28.723Z,22.12
2022-09-20T10:07:07.361Z,22.13
2022-09-20T10:09:54.503Z,22.15
2022-09-20T10:12:51.870Z,22.14
2022-09-20T10:15:28.944Z,22.15
2022-09-20T10:18:10.139Z,22.17
2022-09-20T10:20:53.254Z,22.20
2022-09-20T10:26:44.082Z,22.22
2022-09-20T10:29:26.348Z,22.23
2022-09-20T10:32:12.775Z,22.23
2022-09-20T10:34:59.369Z,22.25
2022-09-20T10:37:38.114Z,22.26
2022-09-20T10:40:25.997Z,22.26
2022-09-20T10:43:15.722Z,22.30
2022-09-20T10:46:14.514Z,22.29
2022-09-20T10:48:49.147Z,22.32
2022-09-20T10:51:26.305Z,22.33
2022-09-20T10:54:05.972Z,22.34
2022-09-20T10:56:45.006Z,22.34
2022-09-20T10:59:27.051Z,22.36
2022-09-20T11:02:08.167Z,22.38
2022-09-20T11:04:50.131Z,22.37
2022-09-20T11:07:27.641Z,22.37
2022-09-20T11:10:02.803Z,22.36
2022-09-20T11:12:39.593Z,22.37
2022-09-20T11:15:16.968Z,22.38
2022-09-20T11:17:54.892Z,22.39
2022-09-20T11:20:30.245Z,22.40
2022-09-20T11:23:07.383Z,22.41
2022-09-20T11:25:44.434Z,22.41
2022-09-20T11:28:20.840Z,22.42
2022-09-20T11:30:57.973Z,22.43
2022-09-20T11:33:36.981Z,22.42
2022-09-20T11:36:16.445Z,22.44
2022-09-20T11:38:53.221Z,22.45
2022-09-20T11:41:27.839Z,22.45
2022-09-20T11:44:06.941Z,22.44
2022-09-20T11:46:43.995Z,22.44
2022-09-20T11:49:19.962Z,22.45
2022-09-20T11:52:00.938Z,22.47
2022-09-20T11:54:57.531Z,22.47
2022-09-20T11:57:30.781Z,22.47
2022-09-20T12:00:07.735Z,22.46
2022-09-20T12:02:49.511Z,22.48
2022-09-20T12:05:28.060Z,22.50
2022-09-20T12:08:02.463Z,22.52
2022-09-20T12:10:37.442Z,22.51
2022-09-20T12:13:22.202Z,22.52
2022-09-20T12:16:01.017Z,22.51
2022-09-20T12:18:47.937Z,22.54
2022-09-20T12:21:21.833Z,22.55
2022-09-20T12:24:09.754Z,22.54
2022-09-20T12:26:43.998Z,22.55
2022-09-20T12:29:35.859Z,22.56
2022-09-20T12:32:31.354Z,22.55
2022-09-20T12:35:24.207Z,22.53
2022-09-20T12:37:57.337Z,22.54
2022-09-20T12:40:30.275Z,22.55
2022-09-20T12:43:03.440Z,22.55
2022-09-20T12:45:36.644Z,22.60
2022-09-20T12:48:19.459Z,22.58
2022-09-20T12:51:19.843Z,22.67
2022-09-20T12:54:00.186Z,22.63
2022-09-20T12:56:36.371Z,22.69
2022-09-20T12:59:23.061Z,22.71
2022-09-20T13:01:55.817Z,22.72
2022-09-20T13:04:52.351Z,22.72
2022-09-20T13:07:33.328Z,22.73
2022-09-20T13:10:15.769Z,22.73
2022-09-20T13:12:53.865Z,22.72
2022-09-20T13:15:27.681Z,22.71
2022-09-20T13:18:02.324Z,22.70
2022-09-20T13:20:36.941Z,22.72
2022-09-20T13:23:17.382Z,22.73
2022-09-20T13:25:51.050Z,22.72
2022-09-20T13:28:29.420Z,22.72
2022-09-20T13:31:20.472Z,22.75
2022-09-20T13:33:53.705Z,22.75
2022-09-20T13:36:29.755Z,22.75
2022-09-20T13:39:03.096Z,22.73
2022-09-20T13:41:37.845Z,22.78
2022-09-20T13:44:17.025Z,22.83
2022-09-20T13:46:50.138Z,22.89
2022-09-20T13:49:24.446Z,22.90
2022-09-20T13:51:59.004Z,22.92
2022-09-20T13:54:33.005Z,22.94
2022-09-20T13:57:07.272Z,22.97
2022-09-20T13:59:43.290Z,22.99
2022-09-20T14:02:21.133Z,23.01
2022-09-20T14:04:55.526Z,23.04
2022-09-20T14:07:30.988Z,23.07
2022-09-20T14:10:03.911Z,23.07
2022-09-20T14:12:38.697Z,23.12
2022-09-20T14:15:12.151Z,23.16
2022-09-20T14:17:46.082Z,23.16
2022-09-20T14:20:19.389Z,23.17
2022-09-20T14:22:58.490Z,23.18
2022-09-20T14:25:34.659Z,23.20
2022-09-20T14:28:08.433Z,23.22
2022-09-20T14:30:41.576Z,23.24
2022-09-20T14:33:17.788Z,23.17
2022-09-20T14:35:51.900Z,23.02
2022-09-20T14:38:28.010Z,23.00
2022-09-20T14:41:01.174Z,23.01
2022-09-20T14:43:35.169Z,23.02
2022-09-20T14:46:12.258Z,23.00
2022-09-20T14:48:45.506Z,22.96
2022-09-20T14:51:26.188Z,22.98
2022-09-20T14:54:13.914Z,23.14
2022-09-20T14:56:51.026Z,23.17
2022-09-20T14:59:28.341Z,23.39
2022-09-20T15:02:05.969Z,23.39
2022-09-20T15:04:39.981Z,23.30
2022-09-20T15:07:13.225Z,23.33
2022-09-20T15:09:46.461Z,23.33
2022-09-20T15:12:21.592Z,23.31
2022-09-20T15:14:54.854Z,23.32
2022-09-20T15:17:27.901Z,23.31
2022-09-20T15:20:01.270Z,23.32
2022-09-20T15:22:34.432Z,23.32
2022-09-20T15:25:07.715Z,23.29
2022-09-20T15:27:43.445Z,23.34
2022-09-20T15:30:17.312Z,23.26
2022-09-20T15:32:50.515Z,23.25
2022-09-20T15:35:23.678Z,23.21
2022-09-20T15:37:56.564Z,23.20
2022-09-20T15:40:29.683Z,23.23
2022-09-20T15:43:04.946Z,23.18
2022-09-20T15:45:49.320Z,23.21
2022-09-20T15:48:23.501Z,23.22
2022-09-20T15:51:01.908Z,23.21
2022-09-20T15:53:35.703Z,23.22
2022-09-20T15:56:15.211Z,23.20
2022-09-20T15:58:50.922Z,23.22
2022-09-20T16:01:24.134Z,23.21
2022-09-20T16:03:57.449Z,23.22
2022-09-20T16:06:32.750Z,23.22
2022-09-20T16:09:06.445Z,23.18
2022-09-20T16:11:39.842Z,23.16
2022-09-20T16:14:14.251Z,23.13
2022-09-20T16:16:47.252Z,23.12
2022-09-20T16:19:21.082Z,23.08
2022-09-20T16:21:58.309Z,23.04
2022-09-20T16:24:34.210Z,23.04
2022-09-20T16:27:08.446Z,23.06
2022-09-20T16:29:42.899Z,23.06
2022-09-20T16:32:16.036Z,23.04
2022-09-20T16:34:49.934Z,23.07
2022-09-20T16:37:24.337Z,23.08
2022-09-20T16:39:57.857Z,23.08
2022-09-20T16:42:32.445Z,23.07
2022-09-20T16:45:07.505Z,23.10
2022-09-20T16:47:41.208Z,23.13
2022-09-20T16:50:14.264Z,23.19
2022-09-20T16:52:47.296Z,23.22
2022-09-20T16:55:20.948Z,23.27
2022-09-20T16:57:54.225Z,23.28
2022-09-20T17:00:28.781Z,23.29
2022-09-20T17:03:01.780Z,23.37
2022-09-20T17:05:35.006Z,23.35
2022-09-20T17:08:09.841Z,23.40
2022-09-20T17:10:42.935Z,23.40
2022-09-20T17:13:16.017Z,23.49
2022-09-20T17:15:50.612Z,23.50
2022-09-20T17:18:23.761Z,23.53
2022-09-20T17:20:57.044Z,23.60
2022-09-20T17:23:33.170Z,23.52
2022-09-20T17:26:07.709Z,23.53
2022-09-20T17:28:41.838Z,23.61
2022-09-20T17:31:17.745Z,23.65
2022-09-20T17:33:51.424Z,23.68
2022-09-20T17:36:24.977Z,23.67
2022-09-20T17:39:03.619Z,23.70
2022-09-20T17:41:38.044Z,23.72
2022-09-20T17:44:12.177Z,23.72
2022-09-20T17:46:49.495Z,23.73
2022-09-20T17:49:23.434Z,23.67
2022-09-20T17:51:56.966Z,23.75
2022-09-20T17:54:30.088Z,23.79
2022-09-20T17:57:03.223Z,23.74
2022-09-20T17:59:36.626Z,23.81
2022-09-20T18:02:11.709Z,23.80
2022-09-20T18:04:45.338Z,23.79
2022-09-20T18:07:18.134Z,23.79
2022-09-20T18:09:51.369Z,23.76
2022-09-20T18:12:24.456Z,23.63
2022-09-20T18:14:57.456Z,23.37
2022-09-20T18:17:31.604Z,23.15
2022-09-20T18:20:06.070Z,23.09
2022-09-20T18:22:39.484Z,23.07
2022-09-20T18:25:12.752Z,23.06
2022-09-20T18:27:46.242Z,23.11
2022-09-20T18:30:21.331Z,23.05
2022-09-20T18:32:55.597Z,23.00
2022-09-20T18:35:28.920Z,22.94
2022-09-20T18:38:02.296Z,22.97
2022-09-20T18:40:36.372Z,22.91
2022-09-20T18:43:09.488Z,22.86
2022-09-20T18:45:51.300Z,22.80
2022-09-20T18:48:27.088Z,22.77
2022-09-20T18:51:00.940Z,22.92
2022-09-20T18:53:35.667Z,22.79
2022-09-20T18:56:10.012Z,22.94
2022-09-20T18:58:44.760Z,22.90
2022-09-20T19:01:32.673Z,22.82
2022-09-20T19:04:12.066Z,22.73
2022-09-20T19:06:48.590Z,22.77
2022-09-20T19:09:25.573Z,22.80
2022-09-20T19:12:02.808Z,22.91
2022-09-20T19:14:45.572Z,22.98
2022-09-20T19:17:24.888Z,22.99
2022-09-20T19:20:04.695Z,22.99
2022-09-20T19:22:49.743Z,22.96
2022-09-20T19:25:27.005Z,22.87
2022-09-20T19:28:00.275Z,22.94
2022-09-20T19:30:33.537Z,22.91
2022-09-20T19:33:06.915Z,22.91
2022-09-20T19:35:48.722Z,22.99
2022-09-20T19:38:30.130Z,22.90
2022-09-20T19:41:08.016Z,22.95
2022-09-20T19:43:50.375Z,22.94
2022-09-20T19:46:33.149Z,22.98
2022-09-20T19:49:14.270Z,22.93
2022-09-20T19:51:48.649Z,23.07
2022-09-20T19:54:21.904Z,23.04
2022-09-20T19:56:55.865Z,22.99
2022-09-20T19:59:29.346Z,23.12
2022-09-20T20:02:02.812Z,23.21
2022-09-20T20:04:36.342Z,23.21
2022-09-20T20:07:16.580Z,23.21
2022-09-20T20:09:54.806Z,23.29
2022-09-20T20:12:32.123Z,23.35
2022-09-20T20:15:10.825Z,23.30
2022-09-20T20:17:49.655Z,23.33
2022-09-20T20:20:29.938Z,23.39
2022-09-20T20:23:19.268Z,23.43
2022-09-20T20:25:59.985Z,23.39
2022-09-20T20:28:33.312Z,23.38
2022-09-20T20:31:07.667Z,23.38
2022-09-20T20:33:41.037Z,23.36
2022-09-20T20:36:14.283Z,23.37
2022-09-20T20:38:52.557Z,23.30
2022-09-20T20:41:27.261Z,23.33
2022-09-20T20:44:00.329Z,23.32
2022-09-20T20:46:35.836Z,23.25
2022-09-20T20:49:09.215Z,23.23
2022-09-20T20:51:42.376Z,23.32
2022-09-20T20:54:16.908Z,23.33
2022-09-20T20:56:49.865Z,23.27
2022-09-20T20:59:22.835Z,23.23
2022-09-20T21:01:56.717Z,23.26
2022-09-20T21:04:31.480Z,23.22
2022-09-20T21:07:04.802Z,23.18
2022-09-20T21:09:39.889Z,23.19
2022-09-20T21:12:13.087Z,23.20
2022-09-20T21:14:46.183Z,23.14
2022-09-20T21:17:19.617Z,23.09
2022-09-20T21:19:52.555Z,23.02
2022-09-20T21:22:25.694Z,23.00
2022-09-20T21:25:00.105Z,22.94
2022-09-20T21:27:36.280Z,22.81
2022-09-20T21:30:10.021Z,22.79
2022-09-20T21:32:43.125Z,22.74
2022-09-20T21:35:15.916Z,22.71
2022-09-20T21:37:49.547Z,22.62
2022-09-20T21:40:24.534Z,22.64
2022-09-20T21:42:57.469Z,22.58
2022-09-20T21:45:30.401Z,22.55
2022-09-20T21:48:05.326Z,22.50
2022-09-20T21:50:38.208Z,22.44
2022-09-20T21:53:11.051Z,22.42
2022-09-20T21:55:45.438Z,22.37
2022-09-20T21:58:18.462Z,22.36
2022-09-20T22:00:57.111Z,22.35
2022-09-20T22:03:37.133Z,22.31
2022-09-20T22:06:11.433Z,22.34
2022-09-20T22:08:47.553Z,22.29
2022-09-20T22:11:22.684Z,22.25
2022-09-20T22:13:56.125Z,22.26
2022-09-20T22:16:30.018Z,22.21
2022-09-20T22:19:03.354Z,22.21
2022-09-20T22:21:37.767Z,22.16
2022-09-20T22:24:11.928Z,22.14
2022-09-20T22:26:48.760Z,22.13
2022-09-20T22:29:22.053Z,22.13
2022-09-20T22:31:55.691Z,22.10
2022-09-20T22:34:28.876Z,22.08
2022-09-20T22:37:01.849Z,22.07
2022-09-20T22:39:34.941Z,22.06
2022-09-20T22:42:09.627Z,22.01
2022-09-20T22:44:42.696Z,22.03
2022-09-20T22:47:15.634Z,22.00
2022-09-20T22:49:48.574Z,22.07
2022-09-20T22:52:21.544Z,22.11
2022-09-20T22:54:54.777Z,22.09
2022-09-20T22:57:29.152Z,22.10
2022-09-20T23:00:02.644Z,22.08
2022-09-20T23:02:35.916Z,22.06
2022-09-20T23:05:09.243Z,22.05
2022-09-20T23:07:42.147Z,22.02
2022-09-20T23:10:15.713Z,22.02
2022-09-20T23:12:52.656Z,22.01
2022-09-20T23:15:25.796Z,22.02
2022-09-20T23:17:58.909Z,22.01
2022-09-20T23:20:32.271Z,21.98
2022-09-20T23:23:05.635Z,22.00
2022-09-20T23:25:38.779Z,22.01
2022-09-20T23:28:13.228Z,22.01
2022-09-20T23:30:46.396Z,22.00
2022-09-20T23:33:19.383Z,21.99
2022-09-20T23:35:52.344Z,21.98
2022-09-20T23:38:25.292Z,21.97
2022-09-20T23:41:02.879Z,21.96
2022-09-20T23:43:38.208Z,21.98
2022-09-20T23:46:12.448Z,21.96
2022-09-20T23:48:45.484Z,21.96
2022-09-20T23:51:19.761Z,21.95
2022-09-20T23:53:53.471Z,21.98
2022-09-20T23:56:26.798Z,21.98
2022-09-20T23:59:01.165Z,21.97
